createdAt,value
2022-07-26T00:00:39.716Z,18.70
2022-07-26T00:02:18.334Z,18.70
2022-07-26T00:03:52.218Z,18.70
2022-07-26T00:05:24.448Z,18.70
2022-07-26T00:06:56.819Z,18.70
2022-07-26T00:08:29.477Z,18.60
2022-07-26T00:10:01.788Z,18.70
2022-07-26T00:11:34.184Z,18.70
2022-07-26T00:13:06.907Z,18.70
2022-07-26T00:14:39.434Z,18.70
2022-07-26T00:16:14.021Z,18.70
2022-07-26T00:17:46.270Z,18.70
2022-07-26T00:19:18.508Z,18.70
2022-07-26T00:20:50.998Z,18.70
2022-07-26T00:22:34.231Z,18.70
2022-07-26T00:24:07.674Z,18.70
2022-07-26T00:25:40.311Z,18.70
2022-07-26T00:27:12.732Z,18.80
2022-07-26T00:28:45.429Z,18.80
2022-07-26T00:30:17.710Z,18.80
2022-07-26T00:31:49.949Z,18.70
2022-07-26T00:33:22.399Z,18.70
2022-07-26T00:34:54.947Z,18.70
2022-07-26T00:36:28.918Z,18.70
2022-07-26T00:38:01.099Z,18.70
2022-07-26T00:39:33.538Z,18.70
2022-07-26T00:41:07.422Z,18.70
2022-07-26T00:42:40.220Z,18.70
2022-07-26T00:44:12.474Z,18.70
2022-07-26T00:45:44.997Z,18.70
2022-07-26T00:47:17.747Z,18.80
2022-07-26T00:48:50.087Z,18.70
2022-07-26T00:50:22.559Z,18.70
2022-07-26T00:51:54.956Z,18.70
2022-07-26T00:53:27.210Z,18.60
2022-07-26T00:55:00.016Z,18.60
2022-07-26T00:56:34.947Z,18.60
2022-07-26T00:58:07.501Z,18.60
2022-07-26T00:59:40.348Z,18.60
2022-07-26T01:01:12.881Z,18.60
2022-07-26T01:02:46.171Z,18.60
2022-07-26T01:04:18.584Z,18.50
2022-07-26T01:05:50.877Z,18.50
2022-07-26T01:07:23.938Z,18.40
2022-07-26T01:08:56.438Z,18.40
2022-07-26T01:10:29.777Z,18.40
2022-07-26T01:12:01.907Z,18.40
2022-07-26T01:13:35.570Z,18.40
2022-07-26T01:15:13.959Z,18.40
2022-07-26T01:16:47.509Z,18.30
2022-07-26T01:18:19.711Z,18.40
2022-07-26T01:19:51.960Z,18.30
2022-07-26T01:21:32.393Z,18.30
2022-07-26T01:23:04.937Z,18.30
2022-07-26T01:24:37.180Z,18.30
2022-07-26T01:26:10.469Z,18.20
2022-07-26T01:27:43.963Z,18.20
2022-07-26T01:29:16.486Z,18.20
2022-07-26T01:30:49.891Z,18.20
2022-07-26T01:32:22.309Z,18.20
2022-07-26T01:33:55.565Z,18.20
2022-07-26T01:35:29.205Z,18.20
2022-07-26T01:37:01.900Z,18.10
2022-07-26T01:38:34.316Z,18.10
2022-07-26T01:40:07.771Z,18.10
2022-07-26T01:41:41.676Z,18.10
2022-07-26T01:43:14.418Z,18.10
2022-07-26T01:44:46.724Z,18.10
2022-07-26T01:46:18.937Z,18.10
2022-07-26T01:47:51.623Z,18.10
2022-07-26T01:49:23.973Z,18.10
2022-07-26T01:50:56.273Z,18.10
2022-07-26T01:52:28.594Z,18.10
2022-07-26T01:54:02.084Z,18.10
2022-07-26T01:55:36.013Z,18.10
2022-07-26T01:57:08.637Z,18.10
2022-07-26T01:58:42.069Z,18.10
2022-07-26T02:00:15.432Z,18.10
2022-07-26T02:01:47.862Z,18.10
2022-07-26T02:03:20.234Z,18.10
2022-07-26T02:05:01.971Z,18.10
2022-07-26T02:06:34.632Z,18.20
2022-07-26T02:08:06.948Z,18.20
2022-07-26T02:09:39.967Z,18.20
2022-07-26T02:11:12.531Z,18.20
2022-07-26T02:12:44.914Z,18.20
2022-07-26T02:14:25.548Z,18.20
2022-07-26T02:16:01.701Z,18.20
2022-07-26T02:17:34.124Z,18.20
2022-07-26T02:19:06.922Z,18.20
2022-07-26T02:20:39.698Z,18.20
2022-07-26T02:22:11.980Z,18.20
2022-07-26T02:23:44.196Z,18.30
2022-07-26T02:25:16.554Z,18.30
2022-07-26T02:26:48.741Z,18.20
2022-07-26T02:28:21.976Z,18.20
2022-07-26T02:29:54.105Z,18.20
2022-07-26T02:31:32.202Z,18.20
2022-07-26T02:33:05.082Z,18.20
2022-07-26T02:34:37.740Z,18.30
2022-07-26T02:36:09.904Z,18.20
2022-07-26T02:37:43.780Z,18.30
2022-07-26T02:39:17.153Z,18.30
2022-07-26T02:40:50.629Z,18.30
2022-07-26T02:42:22.928Z,18.30
2022-07-26T02:43:55.284Z,18.30
2022-07-26T02:45:28.083Z,18.40
2022-07-26T02:47:00.304Z,18.30
2022-07-26T02:48:32.814Z,18.40
2022-07-26T02:50:06.269Z,18.30
2022-07-26T02:51:38.490Z,18.30
2022-07-26T02:53:10.810Z,18.30
2022-07-26T02:54:43.244Z,18.30
2022-07-26T02:56:15.618Z,18.30
2022-07-26T02:57:48.555Z,18.30
2022-07-26T02:59:20.840Z,18.30
2022-07-26T03:00:53.203Z,18.30
2022-07-26T03:02:25.946Z,18.30
2022-07-26T03:03:58.396Z,18.30
2022-07-26T03:05:30.563Z,18.40
2022-07-26T03:07:03.071Z,18.40
2022-07-26T03:08:36.516Z,18.40
2022-07-26T03:10:09.618Z,18.40
2022-07-26T03:11:41.987Z,18.40
2022-07-26T03:13:15.391Z,18.40
2022-07-26T03:14:47.838Z,18.40
2022-07-26T03:16:21.902Z,18.40
2022-07-26T03:18:21.754Z,18.40
2022-07-26T03:21:44.157Z,18.40
2022-07-26T03:23:16.946Z,18.60
2022-07-26T03:24:49.181Z,18.70
2022-07-26T03:26:22.028Z,18.90
2022-07-26T03:27:57.200Z,19.10
2022-07-26T03:29:30.465Z,19.30
2022-07-26T03:31:03.793Z,19.50
2022-07-26T03:32:36.536Z,19.80
2022-07-26T03:34:09.235Z,20.00
2022-07-26T03:35:41.556Z,20.20
2022-07-26T03:37:14.030Z,20.50
2022-07-26T03:38:46.432Z,20.80
2022-07-26T03:40:19.976Z,20.90
2022-07-26T03:41:52.176Z,21.00
2022-07-26T03:43:24.573Z,21.30
2022-07-26T03:44:57.148Z,21.40
2022-07-26T03:46:29.446Z,21.60
2022-07-26T03:48:01.648Z,21.90
2022-07-26T03:49:34.327Z,21.90
2022-07-26T03:51:06.916Z,22.10
2022-07-26T03:52:39.316Z,22.30
2022-07-26T03:54:11.957Z,22.30
2022-07-26T03:56:02.967Z,22.50
2022-07-26T03:57:50.624Z,22.70
2022-07-26T03:59:24.219Z,22.80
2022-07-26T04:00:56.525Z,22.90
2022-07-26T04:02:28.765Z,23.10
2022-07-26T04:04:02.055Z,23.30
2022-07-26T04:05:34.268Z,23.20
2022-07-26T04:07:08.535Z,23.40
2022-07-26T04:08:41.712Z,23.40
2022-07-26T04:10:15.818Z,23.50
2022-07-26T04:11:50.668Z,23.70
2022-07-26T04:13:24.106Z,23.70
2022-07-26T04:14:57.500Z,23.90
2022-07-26T04:16:29.945Z,23.90
2022-07-26T04:18:02.083Z,24.10
2022-07-26T04:19:34.227Z,24.10
2022-07-26T04:21:11.942Z,24.10
2022-07-26T04:22:45.113Z,24.30
2022-07-26T04:24:17.324Z,24.40
2022-07-26T04:25:49.740Z,24.40
2022-07-26T04:27:21.904Z,24.60
2022-07-26T04:28:54.465Z,24.40
2022-07-26T04:30:27.344Z,24.50
2022-07-26T04:32:01.089Z,24.60
2022-07-26T04:33:33.427Z,24.50
2022-07-26T04:35:06.231Z,24.50
2022-07-26T04:36:39.032Z,24.50
2022-07-26T04:38:11.267Z,24.30
2022-07-26T04:39:43.460Z,24.40
2022-07-26T04:41:15.924Z,24.60
2022-07-26T04:42:49.370Z,24.40
2022-07-26T04:44:21.552Z,24.30
2022-07-26T04:45:53.864Z,24.00
2022-07-26T04:47:26.376Z,23.90
2022-07-26T04:48:58.658Z,23.90
2022-07-26T04:50:30.884Z,23.90
2022-07-26T04:52:03.220Z,24.30
2022-07-26T04:53:35.729Z,24.10
2022-07-26T04:55:10.451Z,24.00
2022-07-26T04:56:42.873Z,23.90
2022-07-26T04:58:15.181Z,23.90
2022-07-26T04:59:58.165Z,23.90
2022-07-26T05:01:40.067Z,23.90
2022-07-26T05:03:12.349Z,24.10
2022-07-26T05:04:44.821Z,24.00
2022-07-26T05:06:17.676Z,24.10
2022-07-26T05:07:54.819Z,24.40
2022-07-26T05:09:27.053Z,24.30
2022-07-26T05:10:59.591Z,24.20
2022-07-26T05:12:32.013Z,24.30
2022-07-26T05:14:04.983Z,24.10
2022-07-26T05:15:37.417Z,24.20
2022-07-26T05:17:10.439Z,24.00
2022-07-26T05:18:46.032Z,24.00
2022-07-26T05:20:21.608Z,24.00
2022-07-26T05:21:53.739Z,23.80
2022-07-26T05:23:25.876Z,23.50
2022-07-26T05:24:58.402Z,23.40
2022-07-26T05:26:31.068Z,23.60
2022-07-26T05:28:03.517Z,23.70
2022-07-26T05:29:35.748Z,23.70
2022-07-26T05:31:08.278Z,23.80
2022-07-26T05:32:40.576Z,24.10
2022-07-26T05:34:13.747Z,23.90
2022-07-26T05:35:45.912Z,24.00
2022-07-26T05:37:18.273Z,24.00
2022-07-26T05:38:50.465Z,23.90
2022-07-26T05:40:22.984Z,23.90
2022-07-26T05:41:55.322Z,23.80
2022-07-26T05:43:27.825Z,24.00
2022-07-26T05:45:14.086Z,23.90
2022-07-26T05:46:46.185Z,24.00
2022-07-26T05:48:18.543Z,24.00
2022-07-26T05:49:52.137Z,24.30
2022-07-26T05:51:24.320Z,24.20
2022-07-26T05:52:56.703Z,24.20
2022-07-26T05:54:28.980Z,24.30
2022-07-26T05:56:01.842Z,24.10
2022-07-26T05:57:34.011Z,24.30
2022-07-26T05:59:06.145Z,24.30
2022-07-26T06:00:38.342Z,24.40
2022-07-26T06:02:10.801Z,24.40
2022-07-26T06:03:43.651Z,24.30
2022-07-26T06:05:15.981Z,24.40
2022-07-26T06:06:48.192Z,24.30
2022-07-26T06:08:21.639Z,24.30
2022-07-26T06:09:53.847Z,24.50
2022-07-26T06:11:26.113Z,24.60
2022-07-26T06:12:59.708Z,24.80
2022-07-26T06:14:32.059Z,24.90
2022-07-26T06:16:04.756Z,25.10
2022-07-26T06:17:41.564Z,25.00
2022-07-26T06:19:14.025Z,25.00
2022-07-26T06:20:48.368Z,25.10
2022-07-26T06:22:20.527Z,25.00
2022-07-26T06:23:53.168Z,25.00
2022-07-26T06:25:26.493Z,25.10
2022-07-26T06:27:04.897Z,25.60
2022-07-26T06:28:39.462Z,25.70
2022-07-26T06:30:12.423Z,25.70
2022-07-26T06:31:44.764Z,25.80
2022-07-26T06:33:17.293Z,25.80
2022-07-26T06:34:49.413Z,25.90
2022-07-26T06:36:25.081Z,26.10
2022-07-26T06:38:00.029Z,26.10
2022-07-26T06:39:32.504Z,26.30
2022-07-26T06:41:05.316Z,26.00
2022-07-26T06:42:38.765Z,25.90
2022-07-26T06:44:11.321Z,25.90
2022-07-26T06:45:44.179Z,26.10
2022-07-26T06:47:16.414Z,26.00
2022-07-26T06:48:52.733Z,25.60
2022-07-26T06:50:25.886Z,25.40
2022-07-26T06:51:58.449Z,25.50
2022-07-26T06:53:30.777Z,25.60
2022-07-26T06:55:04.347Z,25.80
2022-07-26T06:56:36.557Z,25.80
2022-07-26T06:58:08.908Z,26.10
2022-07-26T06:59:41.220Z,26.20
2022-07-26T07:01:57.496Z,26.10
2022-07-26T07:03:06.053Z,26.50
2022-07-26T07:04:38.846Z,26.70
2022-07-26T07:06:11.088Z,26.80
2022-07-26T07:07:43.444Z,27.00
2022-07-26T07:09:15.791Z,27.20
2022-07-26T07:10:50.828Z,27.30
2022-07-26T07:12:23.337Z,27.40
2022-07-26T07:13:55.504Z,27.40
2022-07-26T07:15:27.684Z,27.00
2022-07-26T07:17:00.596Z,26.80
2022-07-26T07:18:32.841Z,27.40
2022-07-26T07:20:06.187Z,27.60
2022-07-26T07:21:39.453Z,28.00
2022-07-26T07:23:11.822Z,28.20
2022-07-26T07:24:44.352Z,28.60
2022-07-26T07:26:20.173Z,29.00
2022-07-26T07:27:52.717Z,29.50
2022-07-26T07:29:25.600Z,29.50
2022-07-26T07:31:01.449Z,30.10
2022-07-26T07:32:36.059Z,29.90
2022-07-26T07:34:08.725Z,30.40
2022-07-26T07:35:41.336Z,30.30
2022-07-26T07:37:17.512Z,30.20
2022-07-26T07:38:50.281Z,30.40
2022-07-26T07:40:24.006Z,30.90
2022-07-26T07:41:56.445Z,31.20
2022-07-26T07:43:28.742Z,31.50
2022-07-26T07:45:01.115Z,31.90
2022-07-26T07:46:33.817Z,32.00
2022-07-26T07:48:06.686Z,32.40
2022-07-26T07:49:38.920Z,32.60
2022-07-26T07:51:11.711Z,32.80
2022-07-26T07:52:43.986Z,32.90
2022-07-26T07:54:16.773Z,33.00
2022-07-26T07:55:50.719Z,33.20
2022-07-26T07:57:27.544Z,33.30
2022-07-26T07:59:01.927Z,33.30
2022-07-26T08:00:34.298Z,33.10
2022-07-26T08:02:07.398Z,32.90
2022-07-26T08:03:39.756Z,32.90
2022-07-26T08:05:15.182Z,33.00
2022-07-26T08:06:51.114Z,33.00
2022-07-26T08:08:23.846Z,33.00
2022-07-26T08:09:57.237Z,33.10
2022-07-26T08:11:30.004Z,33.10
2022-07-26T08:13:02.514Z,33.20
2022-07-26T08:14:34.687Z,33.20
2022-07-26T08:16:09.505Z,33.10
2022-07-26T08:17:42.147Z,33.20
2022-07-26T08:19:15.436Z,33.20
2022-07-26T08:20:48.377Z,33.00
2022-07-26T08:22:20.840Z,33.00
2022-07-26T08:23:54.625Z,33.00
2022-07-26T08:25:27.088Z,33.10
2022-07-26T08:26:59.559Z,33.20
2022-07-26T08:28:48.530Z,33.10
2022-07-26T08:30:21.072Z,33.20
2022-07-26T08:31:53.564Z,33.20
2022-07-26T08:33:26.027Z,33.20
2022-07-26T08:35:17.266Z,33.40
2022-07-26T08:37:15.307Z,33.40
2022-07-26T08:38:44.391Z,33.40
2022-07-26T08:40:16.653Z,33.40
2022-07-26T08:41:48.921Z,33.30
2022-07-26T08:43:21.387Z,33.50
2022-07-26T08:44:54.170Z,33.40
2022-07-26T08:46:28.020Z,33.50
2022-07-26T08:48:18.647Z,33.50
2022-07-26T08:49:51.210Z,33.50
2022-07-26T08:51:26.452Z,33.50
2022-07-26T08:53:04.115Z,33.60
2022-07-26T08:54:36.811Z,33.70
2022-07-26T08:56:09.256Z,33.60
2022-07-26T08:57:42.028Z,33.90
2022-07-26T08:59:20.877Z,33.70
2022-07-26T09:01:15.047Z,33.80
2022-07-26T09:02:48.733Z,33.80
2022-07-26T09:04:44.402Z,33.70
2022-07-26T09:06:28.130Z,33.50
2022-07-26T09:08:22.264Z,33.50
2022-07-26T09:10:05.381Z,33.60
2022-07-26T09:11:37.523Z,33.50
2022-07-26T09:13:09.874Z,33.50
2022-07-26T09:14:42.515Z,33.50
2022-07-26T09:16:15.192Z,33.50
2022-07-26T09:17:52.113Z,33.50
2022-07-26T09:19:25.745Z,33.50
2022-07-26T09:20:57.968Z,33.40
2022-07-26T09:22:30.666Z,33.40
2022-07-26T09:24:03.451Z,33.40
2022-07-26T09:25:43.696Z,33.40
2022-07-26T09:27:18.227Z,33.60
2022-07-26T09:29:12.855Z,33.50
2022-07-26T09:31:03.874Z,33.50
2022-07-26T09:32:36.909Z,33.60
2022-07-26T09:34:09.578Z,33.50
2022-07-26T09:35:50.746Z,33.60
2022-07-26T09:37:34.968Z,33.50
2022-07-26T09:39:07.391Z,33.50
2022-07-26T09:40:39.741Z,33.50
2022-07-26T09:42:28.690Z,33.60
2022-07-26T09:44:07.159Z,33.40
2022-07-26T09:45:39.516Z,33.50
2022-07-26T09:47:11.787Z,33.60
2022-07-26T09:50:37.101Z,33.70
2022-07-26T09:52:19.868Z,33.80
2022-07-26T09:53:52.184Z,33.70
2022-07-26T09:55:24.743Z,33.50
2022-07-26T09:58:16.766Z,33.50
2022-07-26T09:59:49.458Z,33.30
2022-07-26T10:01:21.761Z,33.20
2022-07-26T10:02:54.354Z,33.20
2022-07-26T10:04:27.299Z,33.20
2022-07-26T10:06:02.182Z,33.00
2022-07-26T10:07:34.908Z,32.80
2022-07-26T10:09:08.560Z,32.60
2022-07-26T10:11:03.246Z,32.50
2022-07-26T10:12:36.549Z,32.60
2022-07-26T10:14:34.307Z,32.50
2022-07-26T10:16:07.933Z,32.60
2022-07-26T10:17:42.577Z,32.40
2022-07-26T10:19:45.413Z,32.30
2022-07-26T10:21:31.952Z,32.20
2022-07-26T10:23:04.831Z,32.30
2022-07-26T10:24:41.277Z,32.50
2022-07-26T10:26:38.389Z,32.60
2022-07-26T10:28:26.268Z,32.70
2022-07-26T10:30:33.768Z,32.90
2022-07-26T10:32:09.881Z,33.00
2022-07-26T10:33:48.464Z,32.90
2022-07-26T10:35:44.576Z,32.70
2022-07-26T10:37:27.938Z,32.60
2022-07-26T10:39:06.534Z,32.40
2022-07-26T10:40:57.218Z,32.50
2022-07-26T10:42:44.760Z,32.50
2022-07-26T10:44:30.470Z,32.70
2022-07-26T10:46:20.326Z,32.90
2022-07-26T10:48:12.647Z,33.00
2022-07-26T10:49:58.592Z,33.10
2022-07-26T10:51:40.068Z,33.20
2022-07-26T10:53:18.962Z,33.50
2022-07-26T10:54:57.326Z,33.70
2022-07-26T10:56:33.362Z,33.90
2022-07-26T10:58:06.018Z,33.90
2022-07-26T10:59:55.254Z,34.00
2022-07-26T11:01:43.223Z,34.10
2022-07-26T11:03:16.321Z,34.00
2022-07-26T11:05:15.627Z,34.00
2022-07-26T11:06:48.651Z,33.80
2022-07-26T11:08:30.436Z,33.70
2022-07-26T11:10:02.787Z,33.40
2022-07-26T11:11:35.088Z,33.10
2022-07-26T11:13:20.635Z,32.90
2022-07-26T11:14:55.840Z,32.60
2022-07-26T11:16:28.066Z,32.30
2022-07-26T11:18:18.495Z,32.20
2022-07-26T11:19:52.228Z,31.70
2022-07-26T11:21:24.437Z,31.40
2022-07-26T11:22:56.722Z,31.20
2022-07-26T11:24:29.532Z,31.00
2022-07-26T11:26:10.549Z,30.80
2022-07-26T11:28:07.188Z,30.70
2022-07-26T11:29:41.587Z,30.70
2022-07-26T11:31:16.097Z,30.50
2022-07-26T11:32:54.330Z,30.50
2022-07-26T11:34:30.468Z,30.40
2022-07-26T11:36:04.977Z,30.20
2022-07-26T11:37:37.530Z,30.10
2022-07-26T11:39:35.353Z,29.80
2022-07-26T11:41:07.761Z,29.40
2022-07-26T11:42:40.085Z,29.20
2022-07-26T11:44:23.426Z,28.80
2022-07-26T11:45:55.691Z,28.80
2022-07-26T11:47:27.921Z,28.60
2022-07-26T11:49:01.037Z,28.40
2022-07-26T11:50:33.514Z,28.20
2022-07-26T11:52:05.970Z,28.00
2022-07-26T11:53:39.563Z,27.80
2022-07-26T11:55:12.484Z,27.70
2022-07-26T11:57:00.403Z,27.50
2022-07-26T11:58:33.296Z,27.20
2022-07-26T12:00:06.914Z,27.10
2022-07-26T12:01:40.285Z,26.80
2022-07-26T12:03:21.037Z,26.70
2022-07-26T12:05:20.169Z,26.60
2022-07-26T12:06:55.053Z,26.40
2022-07-26T12:08:46.989Z,26.20
2022-07-26T12:10:23.108Z,26.10
2022-07-26T12:11:55.746Z,25.90
2022-07-26T12:13:28.037Z,25.80
2022-07-26T12:15:13.564Z,25.60
2022-07-26T12:16:47.570Z,25.40
2022-07-26T12:18:31.337Z,25.20
2022-07-26T12:20:18.507Z,24.90
2022-07-26T12:22:12.674Z,24.80
2022-07-26T12:23:49.887Z,24.60
2022-07-26T12:25:29.660Z,24.40
2022-07-26T12:27:33.021Z,24.30
2022-07-26T12:29:24.666Z,24.20
2022-07-26T12:30:57.095Z,24.10
2022-07-26T12:32:39.356Z,24.00
2022-07-26T12:34:12.365Z,24.10
2022-07-26T12:35:44.715Z,24.10
2022-07-26T12:37:18.227Z,24.20
2022-07-26T12:38:52.514Z,24.20
2022-07-26T12:40:39.524Z,24.10
2022-07-26T12:42:33.115Z,24.20
2022-07-26T12:44:08.525Z,24.10
2022-07-26T12:45:41.796Z,24.10
2022-07-26T12:47:14.038Z,24.10
2022-07-26T12:48:47.014Z,24.00
2022-07-26T12:50:22.797Z,24.00
2022-07-26T12:51:55.148Z,23.90
2022-07-26T12:53:27.312Z,23.90
2022-07-26T12:55:01.181Z,23.90
2022-07-26T12:56:34.344Z,23.80
2022-07-26T12:58:06.732Z,23.80
2022-07-26T12:59:44.612Z,23.70
2022-07-26T13:01:17.267Z,23.80
2022-07-26T13:02:49.819Z,23.70
2022-07-26T13:04:22.517Z,23.70
2022-07-26T13:05:54.674Z,23.70
2022-07-26T13:07:27.158Z,23.60
2022-07-26T13:08:59.456Z,23.60
2022-07-26T13:10:34.047Z,23.60
2022-07-26T13:12:09.278Z,23.50
2022-07-26T13:13:41.912Z,23.40
2022-07-26T13:15:14.108Z,23.40
2022-07-26T13:16:46.612Z,23.30
2022-07-26T13:18:18.840Z,23.20
2022-07-26T13:19:51.116Z,23.20
2022-07-26T13:21:24.112Z,23.00
2022-07-26T13:22:56.465Z,23.00
2022-07-26T13:24:31.017Z,22.90
2022-07-26T13:26:09.102Z,22.70
2022-07-26T13:27:44.747Z,22.60
2022-07-26T13:29:18.125Z,22.60
2022-07-26T13:30:50.453Z,22.60
2022-07-26T13:32:22.659Z,22.50
2022-07-26T13:33:54.885Z,22.50
2022-07-26T13:35:27.263Z,22.50
2022-07-26T13:37:00.131Z,22.30
2022-07-26T13:38:39.189Z,22.30
2022-07-26T13:40:11.953Z,22.30
2022-07-26T13:41:45.443Z,22.30
2022-07-26T13:43:17.730Z,22.20
2022-07-26T13:44:50.308Z,22.20
2022-07-26T13:46:26.382Z,22.10
2022-07-26T13:48:00.016Z,22.20
2022-07-26T13:49:32.798Z,22.10
2022-07-26T13:51:05.687Z,22.00
2022-07-26T13:52:38.256Z,22.00
2022-07-26T13:54:13.082Z,21.90
2022-07-26T13:55:45.539Z,21.80
2022-07-26T13:57:17.716Z,21.80
2022-07-26T13:58:50.093Z,21.80
2022-07-26T14:00:22.845Z,21.70
2022-07-26T14:01:56.259Z,21.80
2022-07-26T14:03:32.179Z,21.70
2022-07-26T14:05:08.893Z,21.70
2022-07-26T14:06:41.671Z,21.80
2022-07-26T14:08:13.859Z,21.70
2022-07-26T14:09:46.353Z,21.70
2022-07-26T14:11:18.958Z,21.80
2022-07-26T14:12:52.625Z,21.70
2022-07-26T14:14:25.287Z,21.70
2022-07-26T14:15:57.665Z,21.70
2022-07-26T14:17:29.901Z,21.70
2022-07-26T14:19:03.417Z,21.70
2022-07-26T14:20:36.120Z,21.70
2022-07-26T14:22:08.632Z,21.70
2022-07-26T14:23:40.937Z,21.70
2022-07-26T14:25:13.464Z,21.70
2022-07-26T14:26:45.623Z,21.60
2022-07-26T14:28:19.993Z,21.60
2022-07-26T14:29:52.249Z,21.60
2022-07-26T14:31:24.956Z,21.60
2022-07-26T14:32:57.198Z,21.50
2022-07-26T14:34:29.424Z,21.40
2022-07-26T14:36:01.634Z,21.40
2022-07-26T14:37:44.121Z,21.40
2022-07-26T14:39:17.569Z,21.30
2022-07-26T14:40:49.957Z,21.30
2022-07-26T14:42:22.143Z,21.30
2022-07-26T14:43:55.785Z,21.30
2022-07-26T14:45:28.950Z,21.40
2022-07-26T14:47:01.375Z,21.40
2022-07-26T14:48:53.639Z,21.40
2022-07-26T14:50:26.224Z,21.40
2022-07-26T14:51:58.379Z,21.40
2022-07-26T14:53:31.019Z,21.40
2022-07-26T14:55:05.606Z,21.40
2022-07-26T14:56:38.158Z,21.50
2022-07-26T14:58:10.491Z,21.50
2022-07-26T14:59:42.811Z,21.60
2022-07-26T15:01:15.053Z,21.50
2022-07-26T15:02:49.127Z,21.60
2022-07-26T15:04:21.511Z,21.50
2022-07-26T15:05:53.664Z,21.50
2022-07-26T15:07:25.802Z,21.40
2022-07-26T15:08:58.258Z,21.40
2022-07-26T15:10:30.789Z,21.50
2022-07-26T15:12:03.188Z,21.50
2022-07-26T15:13:36.037Z,21.40
2022-07-26T15:15:10.650Z,21.40
2022-07-26T15:16:43.267Z,21.40
2022-07-26T15:18:15.540Z,21.40
2022-07-26T15:19:47.668Z,21.40
2022-07-26T15:21:20.104Z,21.40
2022-07-26T15:22:54.085Z,21.40
2022-07-26T15:24:27.180Z,21.40
2022-07-26T15:25:59.721Z,21.30
2022-07-26T15:27:32.208Z,21.20
2022-07-26T15:29:04.787Z,21.20
2022-07-26T15:30:37.687Z,21.20
2022-07-26T15:32:10.179Z,21.10
2022-07-26T15:33:43.050Z,21.00
2022-07-26T15:35:15.729Z,21.10
2022-07-26T15:36:47.899Z,21.10
2022-07-26T15:38:20.068Z,21.00
2022-07-26T15:39:53.089Z,21.00
2022-07-26T15:41:25.589Z,21.00
2022-07-26T15:42:57.837Z,21.00
2022-07-26T15:44:31.093Z,21.00
2022-07-26T15:46:03.622Z,20.90
2022-07-26T15:48:00.958Z,20.90
2022-07-26T15:49:31.855Z,20.90
2022-07-26T15:51:04.136Z,20.90
2022-07-26T15:52:40.960Z,20.90
2022-07-26T15:54:15.887Z,20.90
2022-07-26T15:55:48.317Z,20.70
2022-07-26T15:57:20.728Z,20.70
2022-07-26T15:58:53.264Z,20.70
2022-07-26T16:00:25.586Z,20.70
2022-07-26T16:01:58.239Z,20.70
2022-07-26T16:03:31.192Z,20.70
2022-07-26T16:05:06.093Z,20.60
2022-07-26T16:06:38.849Z,20.50
2022-07-26T16:08:11.039Z,20.50
2022-07-26T16:09:43.624Z,20.50
2022-07-26T16:11:16.180Z,20.50
2022-07-26T16:12:48.503Z,20.40
2022-07-26T16:14:20.956Z,20.50
2022-07-26T16:15:53.146Z,20.50
2022-07-26T16:17:25.615Z,20.60
2022-07-26T16:18:58.602Z,20.60
2022-07-26T16:20:31.716Z,20.50
2022-07-26T16:22:05.157Z,20.60
2022-07-26T16:23:37.763Z,20.50
2022-07-26T16:25:13.599Z,20.50
2022-07-26T16:26:47.713Z,20.60
2022-07-26T16:28:19.927Z,20.50
2022-07-26T16:29:52.685Z,20.50
2022-07-26T16:31:25.016Z,20.50
2022-07-26T16:32:57.404Z,20.50
2022-07-26T16:34:30.223Z,20.50
2022-07-26T16:36:06.333Z,20.50
2022-07-26T16:37:40.045Z,20.50
2022-07-26T16:39:12.775Z,20.40
2022-07-26T16:40:45.318Z,20.40
2022-07-26T16:42:17.921Z,20.40
2022-07-26T16:43:50.247Z,20.40
2022-07-26T16:45:22.581Z,20.40
2022-07-26T16:46:54.933Z,20.40
2022-07-26T16:48:27.573Z,20.40
2022-07-26T16:49:59.849Z,20.40
2022-07-26T16:51:32.059Z,20.30
2022-07-26T16:53:04.308Z,20.30
2022-07-26T16:54:36.976Z,20.30
2022-07-26T16:56:09.738Z,20.40
2022-07-26T16:57:43.316Z,20.30
2022-07-26T16:59:15.706Z,20.40
2022-07-26T17:00:48.756Z,20.40
2022-07-26T17:02:21.112Z,20.40
2022-07-26T17:03:53.445Z,20.40
2022-07-26T17:05:25.701Z,20.40
2022-07-26T17:07:23.389Z,20.40
2022-07-26T17:08:50.244Z,20.40
2022-07-26T17:10:22.602Z,20.40
2022-07-26T17:11:54.835Z,20.40
2022-07-26T17:13:27.295Z,20.40
2022-07-26T17:15:00.604Z,20.40
2022-07-26T17:16:33.224Z,20.40
2022-07-26T17:18:05.769Z,20.40
2022-07-26T17:19:38.241Z,20.40
2022-07-26T17:21:10.520Z,20.50
2022-07-26T17:22:42.831Z,20.40
2022-07-26T17:24:16.148Z,20.50
2022-07-26T17:25:48.487Z,20.50
2022-07-26T17:27:20.650Z,20.50
2022-07-26T17:28:52.971Z,20.50
2022-07-26T17:30:25.470Z,20.50
2022-07-26T17:31:57.876Z,20.50
2022-07-26T17:33:30.246Z,20.50
2022-07-26T17:35:02.422Z,20.60
2022-07-26T17:36:35.918Z,20.50
2022-07-26T17:38:09.729Z,20.50
2022-07-26T17:39:52.754Z,20.50
2022-07-26T17:41:32.829Z,20.50
2022-07-26T17:43:05.320Z,20.50
2022-07-26T17:44:40.286Z,20.50
2022-07-26T17:46:12.677Z,20.50
2022-07-26T17:47:44.973Z,20.40
2022-07-26T17:49:17.218Z,20.40
2022-07-26T17:50:49.636Z,20.40
2022-07-26T17:52:21.759Z,20.40
2022-07-26T17:53:53.912Z,20.40
2022-07-26T17:55:26.068Z,20.30
2022-07-26T17:56:58.611Z,20.30
2022-07-26T17:58:31.513Z,20.30
2022-07-26T18:00:07.125Z,20.20
2022-07-26T18:01:39.344Z,20.20
2022-07-26T18:03:25.233Z,20.20
2022-07-26T18:04:57.493Z,20.10
2022-07-26T18:06:29.723Z,20.10
2022-07-26T18:08:02.215Z,20.10
2022-07-26T18:09:35.073Z,20.00
2022-07-26T18:11:09.102Z,20.00
2022-07-26T18:12:41.678Z,20.00
2022-07-26T18:14:13.867Z,19.90
2022-07-26T18:15:46.293Z,19.90
2022-07-26T18:17:18.445Z,19.80
2022-07-26T18:18:50.573Z,19.80
2022-07-26T18:20:24.243Z,19.80
2022-07-26T18:21:56.829Z,19.70
2022-07-26T18:23:29.033Z,19.70
2022-07-26T18:25:01.868Z,19.60
2022-07-26T18:26:34.377Z,19.60
2022-07-26T18:28:08.018Z,19.60
2022-07-26T18:29:40.390Z,19.50
2022-07-26T18:31:13.190Z,19.40
2022-07-26T18:32:45.488Z,19.40
2022-07-26T18:34:17.894Z,19.30
2022-07-26T18:35:50.057Z,19.30
2022-07-26T18:37:22.548Z,19.30
2022-07-26T18:38:54.743Z,19.30
2022-07-26T18:40:27.396Z,19.20
2022-07-26T18:42:00.149Z,19.20
2022-07-26T18:43:32.620Z,19.10
2022-07-26T18:45:07.235Z,19.10
2022-07-26T18:46:39.749Z,19.10
2022-07-26T18:48:12.148Z,19.00
2022-07-26T18:49:46.605Z,19.00
2022-07-26T18:51:19.647Z,19.00
2022-07-26T18:52:52.244Z,18.90
2022-07-26T18:54:24.909Z,18.90
2022-07-26T18:55:57.481Z,18.90
2022-07-26T18:57:29.596Z,18.80
2022-07-26T18:59:02.005Z,18.80
2022-07-26T19:00:34.331Z,18.80
2022-07-26T19:02:06.503Z,18.80
2022-07-26T19:03:39.011Z,18.80
2022-07-26T19:05:12.368Z,18.70
2022-07-26T19:06:44.489Z,18.70
2022-07-26T19:08:16.732Z,18.70
2022-07-26T19:09:49.286Z,18.70
2022-07-26T19:11:21.678Z,18.70
2022-07-26T19:12:54.657Z,18.70
2022-07-26T19:14:26.905Z,18.60
2022-07-26T19:15:59.359Z,18.60
2022-07-26T19:17:34.014Z,18.60
2022-07-26T19:19:06.153Z,18.60
2022-07-26T19:20:38.436Z,18.50
2022-07-26T19:22:10.605Z,18.50
2022-07-26T19:23:43.288Z,18.50
2022-07-26T19:25:16.246Z,18.50
2022-07-26T19:26:48.396Z,18.50
2022-07-26T19:28:20.708Z,18.40
2022-07-26T19:29:53.156Z,18.40
2022-07-26T19:31:26.108Z,18.40
2022-07-26T19:32:58.389Z,18.40
2022-07-26T19:34:30.777Z,18.40
2022-07-26T19:36:03.293Z,18.40
2022-07-26T19:37:35.835Z,18.40
2022-07-26T19:39:08.420Z,18.40
2022-07-26T19:40:40.816Z,18.40
2022-07-26T19:42:13.372Z,18.40
2022-07-26T19:43:45.590Z,18.40
2022-07-26T19:45:17.867Z,18.40
2022-07-26T19:46:53.012Z,18.40
2022-07-26T19:48:28.352Z,18.40
2022-07-26T19:50:00.594Z,18.40
2022-07-26T19:51:33.226Z,18.40
2022-07-26T19:53:05.500Z,18.40
2022-07-26T19:54:38.227Z,18.40
2022-07-26T19:56:10.816Z,18.30
2022-07-26T19:57:43.055Z,18.30
2022-07-26T19:59:21.005Z,18.40
2022-07-26T20:00:55.619Z,18.30
2022-07-26T20:02:28.022Z,18.30
2022-07-26T20:04:02.288Z,18.30
2022-07-26T20:05:34.847Z,18.30
2022-07-26T20:07:07.727Z,18.30
2022-07-26T20:08:40.143Z,18.30
2022-07-26T20:10:12.393Z,18.30
2022-07-26T20:11:50.647Z,18.30
2022-07-26T20:13:23.426Z,18.30
2022-07-26T20:14:55.946Z,18.30
2022-07-26T20:16:28.728Z,18.30
2022-07-26T20:18:00.907Z,18.30
2022-07-26T20:19:33.646Z,18.30
2022-07-26T20:21:06.039Z,18.30
2022-07-26T20:22:38.353Z,18.30